Aviation Digital Data Service (ADDS)

Output produced by METARs form (0030 UTC 28 February 2015)
found at http://www.aviationweather.gov/adds/metars/
 
KAOO 272353Z AUTO 30006KT 10SM CLR M11/M19 A3050 RMK AO2 SLP361 T11061194 11072 21106 53023
KAOO 272253Z AUTO 29009KT 10SM CLR M09/M19 A3046 RMK AO2 SLP347 T10941189
KAOO 272153Z AUTO 29011KT 10SM CLR M08/M18 A3045 RMK AO2 SLP342 T10831178
KAOO 272053Z AUTO 29010KT 10SM CLR M08/M17 A3043 RMK AO2 SLP334 T10781172 53015
KAOO 271953Z AUTO 29010KT 10SM CLR M07/M16 A3040 RMK AO2 SLP324 T10721161
KAOO 271853Z AUTO 28008KT 10SM FEW035 M08/M16 A3039 RMK AO2 SLP318 T10781161
KAOO 271753Z AUTO 31009KT 10SM CLR M08/M16 A3038 RMK AO2 SLP315 T10781161 11078 21139 50008
KAOO 271653Z AUTO 28005KT 10SM FEW030 M09/M16 A3038 RMK AO2 SLP316 T10891161
KAOO 271553Z AUTO 30008KT 10SM CLR M10/M17 A3037 RMK AO2 SLP313 T11001167
KAOO 271453Z AUTO 32006KT 10SM CLR M11/M17 A3036 RMK AO2 SLP307 T11111167 51022
KAOO 271353Z AUTO VRB03KT 10SM CLR M12/M17 A3035 RMK AO2 SLP306 T11221172
KAOO 271253Z AUTO 02003KT 10SM FEW019 M14/M18 A3033 RMK AO2 SLP299 T11391178
KAOO 271153Z AUTO 31010KT 10SM CLR M13/M18 A3029 RMK AO2 SLP285 T11331178 11072 21133 51031
KAOO 271053Z AUTO 32008KT 10SM OVC060 M13/M17 A3026 RMK AO2 SLP274 T11281172
KAOO 270953Z AUTO 29007KT 10SM OVC080 M12/M17 A3023 RMK AO2 SLP264 T11171167
KAOO 270853Z AUTO 31009KT 10SM FEW021 OVC090 M11/M16 A3019 RMK AO2 SLP250 T11111161 53024
KAOO 270753Z AUTO 32009KT 10SM OVC095 M10/M15 A3017 RMK AO2 SLP240 T11001150
KAOO 270653Z AUTO 32010KT 10SM OVC095 M09/M13 A3014 RMK AO2 SLP230 T10891133
KAOO 270621Z AUTO 32011KT 10SM SCT020 OVC100 M08/M13 A3013 RMK AO2 T10831128
KAOO 270614Z AUTO 32010KT 10SM BKN020 OVC100 M08/M13 A3013 RMK AO2 T10781128
KAOO 270553Z AUTO 32010KT 10SM OVC100 M07/M12 A3012 RMK AO2 SLP223 60000 T10721117 11039 21072 53021
KAOO 270525Z AUTO 32008KT 10SM SCT024 SCT031 OVC090 M07/M12 A3010 RMK AO2 T10671117
KAOO 270453Z AUTO 32008KT 10SM OVC023 M07/M11 A3009 RMK AO2 SLP214 T10671106 410281067
KAOO 270413Z AUTO 31009KT 10SM BKN022 OVC095 M06/M10 A3007 RMK AO2 T10561100
KAOO 270353Z AUTO 32008KT 10SM OVC095 M06/M09 A3006 RMK AO2 SLP203 T10561094
KAOO 270334Z AUTO 31009KT 10SM SCT022 OVC090 M05/M09 A3006 RMK AO2 T10501089
KAOO 270253Z AUTO 32007KT 10SM OVC021 M04/M08 A3005 RMK AO2 SLP199 60000 T10441083 51022
KAOO 270153Z AUTO 00000KT 6SM BR OVC020 M04/M07 A3004 RMK AO2 SLP195 T10441067
KAOO 270053Z AUTO 32003KT 6SM HZ BKN020 OVC026 M04/M07 A3001 RMK AO2 SNE45 SLP186 P0000 T10441072
KAOO 262353Z AUTO 00000KT 4SM -SN OVC023 M04/M07 A2998 RMK AO2 SNB2255 SLP176 P0000 60000 T10441072 11028 21050 53027
KAOO 262314Z AUTO 00000KT 3SM -SN OVC028 M04/M08 A2995 RMK AO2 SNB2255 P0000 T10391083
KAOO 262308Z AUTO 00000KT 2 1/2SM -SN OVC030 M04/M08 A2995 RMK AO2 SNB2255 P0000 T10391083
KAOO 262253Z AUTO 29004KT 9SM BKN030 OVC035 M04/M09 A2994 RMK AO2 SLP161 T10391089
KAOO 262153Z AUTO 00000KT 10SM SCT036 M03/M10 A2991 RMK AO2 SLP148 T10331100
KAOO 262053Z AUTO 00000KT 10SM FEW031 BKN041 OVC070 M03/M09 A2990 RMK AO2 SLP146 T10331094 53006
KAOO 261953Z AUTO 00000KT 10SM BKN043 OVC050 M03/M10 A2990 RMK AO2 SLP145 T10331100
KAOO 261853Z AUTO 00000KT 10SM FEW038 OVC046 M04/M11 A2988 RMK AO2 SLP139 T10391111
KAOO 261753Z AUTO 02005KT 10SM BKN037 OVC049 M05/M12 A2988 RMK AO2 SLP141 60000 T10501117 11050 21067 55005
KAOO 261653Z AUTO 01008KT 10SM OVC037 M05/M12 A2988 RMK AO2 SLP139 T10501122
KAOO 261553Z AUTO 06006KT 10SM BKN040 OVC048 M06/M12 A2989 RMK AO2 SNB07E26 SLP144 P0000 T10611122
KAOO 261453Z AUTO 04007KT 10SM FEW029 BKN041 OVC050 M07/M13 A2990 RMK AO2 SLP146 T10671133 50010
KAOO 261353Z AUTO 05008KT 10SM FEW033 BKN043 OVC050 M07/M14 A2990 RMK AO2 SLP148 T10671139
KAOO 261253Z AUTO 05007KT 10SM BKN042 OVC050 M06/M14 A2988 RMK AO2 SLP140 T10611139